sensor_id;sensor_type;location;lat;lon;timestamp;pressure;altitude;pressure_sealevel;temperature;humidity
23363;BME280;11853;48.080;11.960;2023-01-29T00:01:33;95628.28;;;1.87;100.00
23363;BME280;11853;48.080;11.960;2023-01-29T00:04:00;95628.56;;;1.98;100.00
23363;BME280;11853;48.080;11.960;2023-01-29T00:06:30;95635.97;;;1.90;100.00
23363;BME280;11853;48.080;11.960;2023-01-29T00:08:56;95637.34;;;1.97;100.00
23363;BME280;11853;48.080;11.960;2023-01-29T00:11:22;95628.56;;;1.98;100.00
23363;BME280;11853;48.080;11.960;2023-01-29T00:13:51;95625.78;;;2.01;100.00
23363;BME280;11853;48.080;11.960;2023-01-29T00:16:17;95626.03;;;1.97;100.00
23363;BME280;11853;48.080;11.960;2023-01-29T00:18:43;95629.25;;;1.86;100.00
23363;BME280;11853;48.080;11.960;2023-01-29T00:21:14;95613.44;;;1.88;100.00
23363;BME280;11853;48.080;11.960;2023-01-29T00:23:40;95613.22;;;1.92;100.00
23363;BME280;11853;48.080;11.960;2023-01-29T00:26:06;95608.03;;;1.91;100.00
23363;BME280;11853;48.080;11.960;2023-01-29T00:28:32;95618.44;;;1.92;100.00
23363;BME280;11853;48.080;11.960;2023-01-29T00:31:08;95620.06;;;1.95;100.00
23363;BME280;11853;48.080;11.960;2023-01-29T00:33:34;95627.19;;;1.91;100.00
23363;BME280;11853;48.080;11.960;2023-01-29T00:36:04;95627.91;;;1.95;100.00
23363;BME280;11853;48.080;11.960;2023-01-29T00:38:31;95637.19;;;2.00;100.00
23363;BME280;11853;48.080;11.960;2023-01-29T00:40:57;95635.81;;;1.93;100.00
23363;BME280;11853;48.080;11.960;2023-01-29T00:43:47;95638.38;;;1.95;100.00
23363;BME280;11853;48.080;11.960;2023-01-29T00:46:31;95635.22;;;1.88;100.00
23363;BME280;11853;48.080;11.960;2023-01-29T00:48:56;95636.22;;;1.86;100.00
23363;BME280;11853;48.080;11.960;2023-01-29T00:51:22;95638.66;;;1.89;100.00
23363;BME280;11853;48.080;11.960;2023-01-29T00:53:48;95639.44;;;1.91;100.00
23363;BME280;11853;48.080;11.960;2023-01-29T00:56:13;95637.81;;;1.88;100.00
23363;BME280;11853;48.080;11.960;2023-01-29T00:58:39;95629.91;;;1.90;100.00
23363;BME280;11853;48.080;11.960;2023-01-29T01:01:05;95637.22;;;1.83;100.00
23363;BME280;11853;48.080;11.960;2023-01-29T01:03:31;95641.75;;;1.79;100.00
23363;BME280;11853;48.080;11.960;2023-01-29T01:06:06;95639.25;;;1.78;100.00
23363;BME280;11853;48.080;11.960;2023-01-29T01:08:32;95648.63;;;1.82;100.00
23363;BME280;11853;48.080;11.960;2023-01-29T01:11:16;95645.78;;;1.87;100.00
23363;BME280;11853;48.080;11.960;2023-01-29T01:13:42;95643.31;;;1.84;100.00
23363;BME280;11853;48.080;11.960;2023-01-29T01:16:13;95638.00;;;1.85;100.00
23363;BME280;11853;48.080;11.960;2023-01-29T01:18:40;95631.91;;;1.85;100.00
23363;BME280;11853;48.080;11.960;2023-01-29T01:21:06;95635.16;;;1.90;100.00
23363;BME280;11853;48.080;11.960;2023-01-29T01:23:32;95645.59;;;1.90;100.00
23363;BME280;11853;48.080;11.960;2023-01-29T01:25:58;95645.59;;;1.90;100.00
23363;BME280;11853;48.080;11.960;2023-01-29T01:28:24;95635.47;;;1.84;100.00
23363;BME280;11853;48.080;11.960;2023-01-29T01:30:50;95640.59;;;1.85;100.00
23363;BME280;11853;48.080;11.960;2023-01-29T01:33:16;95637.66;;;1.91;100.00
23363;BME280;11853;48.080;11.960;2023-01-29T01:35:42;95639.44;;;1.91;100.00
23363;BME280;11853;48.080;11.960;2023-01-29T01:38:08;95642.31;;;1.86;100.00
23363;BME280;11853;48.080;11.960;2023-01-29T01:40:34;95641.69;;;1.81;100.00
23363;BME280;11853;48.080;11.960;2023-01-29T01:43:00;95640.75;;;1.82;100.00
23363;BME280;11853;48.080;11.960;2023-01-29T01:45:34;95645.94;;;1.84;100.00
23363;BME280;11853;48.080;11.960;2023-01-29T01:50:48;95647.00;;;1.79;100.00
23363;BME280;11853;48.080;11.960;2023-01-29T01:53:46;95644.53;;;1.76;100.00
23363;BME280;11853;48.080;11.960;2023-01-29T01:56:22;95641.69;;;1.81;100.00
23363;BME280;11853;48.080;11.960;2023-01-29T01:58:55;95647.16;;;1.76;100.00
23363;BME280;11853;48.080;11.960;2023-01-29T02:01:23;95649.78;;;1.76;100.00
23363;BME280;11853;48.080;11.960;2023-01-29T02:04:01;95643.72;;;1.76;100.00
23363;BME280;11853;48.080;11.960;2023-01-29T02:06:48;95655.69;;;1.80;100.00
23363;BME280;11853;48.080;11.960;2023-01-29T02:10:09;95655.47;;;1.85;100.00
23363;BME280;11853;48.080;11.960;2023-01-29T02:12:37;95656.97;;;1.89;100.00
23363;BME280;11853;48.080;11.960;2023-01-29T02:15:05;95659.69;;;1.87;100.00
23363;BME280;11853;48.080;11.960;2023-01-29T02:17:31;95662.97;;;1.91;100.00
23363;BME280;11853;48.080;11.960;2023-01-29T02:20:33;95656.75;;;1.93;100.00
23363;BME280;11853;48.080;11.960;2023-01-29T02:23:23;95660.03;;;1.97;100.00
23363;BME280;11853;48.080;11.960;2023-01-29T02:26:08;95658.25;;;1.97;100.00
23363;BME280;11853;48.080;11.960;2023-01-29T02:28:57;95655.06;;;1.92;100.00
23363;BME280;11853;48.080;11.960;2023-01-29T02:31:54;95661.91;;;1.95;100.00
23363;BME280;11853;48.080;11.960;2023-01-29T02:34:39;95653.81;;;1.99;100.00
23363;BME280;11853;48.080;11.960;2023-01-29T02:43:14;95652.19;;;1.97;100.00
23363;BME280;11853;48.080;11.960;2023-01-29T02:46:05;95648.84;;;1.95;100.00
23363;BME280;11853;48.080;11.960;2023-01-29T02:49:06;95647.78;;;1.97;100.00
23363;BME280;11853;48.080;11.960;2023-01-29T02:54:08;95637.91;;;1.87;100.00
23363;BME280;11853;48.080;11.960;2023-01-29T02:56:59;95636.69;;;1.76;100.00
23363;BME280;11853;48.080;11.960;2023-01-29T02:59:33;95633.41;;;1.73;100.00
23363;BME280;11853;48.080;11.960;2023-01-29T03:02:13;95641.72;;;1.64;100.00
23363;BME280;11853;48.080;11.960;2023-01-29T03:04:44;95644.41;;;1.62;100.00
23363;BME280;11853;48.080;11.960;2023-01-29T03:07:17;95644.66;;;1.57;100.00
23363;BME280;11853;48.080;11.960;2023-01-29T03:10:14;95636.38;;;1.49;100.00
23363;BME280;11853;48.080;11.960;2023-01-29T03:12:42;95634.97;;;1.42;100.00
23363;BME280;11853;48.080;11.960;2023-01-29T03:15:12;95634.50;;;1.34;100.00
23363;BME280;11853;48.080;11.960;2023-01-29T03:20:17;95637.81;;;1.20;100.00
23363;BME280;11853;48.080;11.960;2023-01-29T03:22:50;95639.28;;;1.26;100.00
23363;BME280;11853;48.080;11.960;2023-01-29T03:25:19;95632.16;;;1.29;100.00
23363;BME280;11853;48.080;11.960;2023-01-29T03:28:06;95630.00;;;1.38;100.00
23363;BME280;11853;48.080;11.960;2023-01-29T03:30:54;95631.16;;;1.32;100.00
23363;BME280;11853;48.080;11.960;2023-01-29T03:33:47;95636.06;;;1.21;100.00
23363;BME280;11853;48.080;11.960;2023-01-29T03:36:28;95640.50;;;1.36;100.00
23363;BME280;11853;48.080;11.960;2023-01-29T03:39:06;95639.28;;;1.26;100.00
23363;BME280;11853;48.080;11.960;2023-01-29T03:42:04;95636.50;;;1.11;100.00
23363;BME280;11853;48.080;11.960;2023-01-29T03:44:59;95630.06;;;1.19;100.00
23363;BME280;11853;48.080;11.960;2023-01-29T03:53:31;95625.94;;;1.15;100.00
23363;BME280;11853;48.080;11.960;2023-01-29T03:56:07;95637.44;;;1.10;100.00
23363;BME280;11853;48.080;11.960;2023-01-29T04:01:15;95634.81;;;1.10;100.00
23363;BME280;11853;48.080;11.960;2023-01-29T04:06:22;95635.13;;;1.04;100.00
23363;BME280;11853;48.080;11.960;2023-01-29T04:09:09;95625.22;;;1.11;100.00
23363;BME280;11853;48.080;11.960;2023-01-29T04:11:44;95616.47;;;1.12;100.00
23363;BME280;11853;48.080;11.960;2023-01-29T04:14:12;95615.75;;;1.08;100.00
23363;BME280;11853;48.080;11.960;2023-01-29T04:16:42;95602.53;;;1.11;100.00
23363;BME280;11853;48.080;11.960;2023-01-29T04:19:10;95595.31;;;1.17;100.00
23363;BME280;11853;48.080;11.960;2023-01-29T04:21:38;95602.94;;;1.21;100.00
23363;BME280;11853;48.080;11.960;2023-01-29T04:24:05;95606.84;;;1.30;100.00
23363;BME280;11853;48.080;11.960;2023-01-29T04:26:54;95602.53;;;1.11;100.00
23363;BME280;11853;48.080;11.960;2023-01-29T04:32:43;95604.47;;;1.08;100.00
23363;BME280;11853;48.080;11.960;2023-01-29T04:43:57;95603.41;;;0.95;100.00
23363;BME280;11853;48.080;11.960;2023-01-29T04:46:32;95600.69;;;0.96;100.00
23363;BME280;11853;48.080;11.960;2023-01-29T04:59:49;95620.69;;;1.32;100.00
23363;BME280;11853;48.080;11.960;2023-01-29T05:02:18;95605.75;;;1.34;100.00
23363;BME280;11853;48.080;11.960;2023-01-29T05:04:46;95608.06;;;1.40;100.00
23363;BME280;11853;48.080;11.960;2023-01-29T05:07:13;95609.75;;;1.41;100.00
23363;BME280;11853;48.080;11.960;2023-01-29T05:09:41;95607.84;;;1.45;100.00
23363;BME280;11853;48.080;11.960;2023-01-29T05:12:10;95605.31;;;1.43;100.00
23363;BME280;11853;48.080;11.960;2023-01-29T05:14:39;95608.50;;;1.48;100.00
23363;BME280;11853;48.080;11.960;2023-01-29T05:17:11;95615.63;;;1.46;100.00
23363;BME280;11853;48.080;11.960;2023-01-29T05:19:39;95619.69;;;1.52;100.00
23363;BME280;11853;48.080;11.960;2023-01-29T05:22:05;95621.19;;;1.56;100.00
23363;BME280;11853;48.080;11.960;2023-01-29T05:24:35;95621.66;;;1.64;100.00
23363;BME280;11853;48.080;11.960;2023-01-29T05:27:00;95630.19;;;1.68;100.00
23363;BME280;11853;48.080;11.960;2023-01-29T05:29:45;95632.63;;;1.71;100.00
23363;BME280;11853;48.080;11.960;2023-01-29T05:32:13;95642.25;;;1.70;100.00
23363;BME280;11853;48.080;11.960;2023-01-29T05:34:38;95634.56;;;1.67;100.00
23363;BME280;11853;48.080;11.960;2023-01-29T05:37:04;95633.56;;;1.70;100.00
23363;BME280;11853;48.080;11.960;2023-01-29T05:39:30;95639.78;;;1.67;100.00
23363;BME280;11853;48.080;11.960;2023-01-29T05:41:56;95638.84;;;1.68;100.00
23363;BME280;11853;48.080;11.960;2023-01-29T05:44:23;95643.09;;;1.71;100.00
23363;BME280;11853;48.080;11.960;2023-01-29T05:46:49;95649.09;;;1.73;100.00
23363;BME280;11853;48.080;11.960;2023-01-29T05:49:27;95651.63;;;1.74;100.00
23363;BME280;11853;48.080;11.960;2023-01-29T05:51:53;95659.47;;;1.74;100.00
23363;BME280;11853;48.080;11.960;2023-01-29T05:54:19;95657.78;;;1.73;100.00
23363;BME280;11853;48.080;11.960;2023-01-29T05:56:44;95655.09;;;1.75;100.00
23363;BME280;11853;48.080;11.960;2023-01-29T05:59:10;95653.66;;;1.69;100.00
23363;BME280;11853;48.080;11.960;2023-01-29T06:01:36;95648.25;;;1.72;100.00
23363;BME280;11853;48.080;11.960;2023-01-29T06:04:02;95651.72;;;1.73;100.00
23363;BME280;11853;48.080;11.960;2023-01-29T06:06:27;95657.72;;;1.75;100.00
23363;BME280;11853;48.080;11.960;2023-01-29T06:08:54;95648.94;;;1.76;100.00
23363;BME280;11853;48.080;11.960;2023-01-29T06:11:20;95641.56;;;1.67;100.00
23363;BME280;11853;48.080;11.960;2023-01-29T06:13:46;95648.97;;;1.58;100.00
23363;BME280;11853;48.080;11.960;2023-01-29T06:16:12;95656.66;;;1.62;100.00
23363;BME280;11853;48.080;11.960;2023-01-29T06:18:39;95642.78;;;1.60;100.00
23363;BME280;11853;48.080;11.960;2023-01-29T06:21:07;95638.03;;;1.50;100.00
23363;BME280;11853;48.080;11.960;2023-01-29T06:23:34;95647.13;;;1.43;100.00
23363;BME280;11853;48.080;11.960;2023-01-29T06:26:01;95646.19;;;1.44;100.00
23363;BME280;11853;48.080;11.960;2023-01-29T06:28:26;95649.75;;;1.61;100.00
23363;BME280;11853;48.080;11.960;2023-01-29T06:30:52;95650.78;;;1.56;100.00
23363;BME280;11853;48.080;11.960;2023-01-29T06:33:21;95660.28;;;1.42;100.00
23363;BME280;11853;48.080;11.960;2023-01-29T06:35:47;95650.97;;;1.36;100.00
23363;BME280;11853;48.080;11.960;2023-01-29T06:38:12;95652.97;;;1.31;100.00
23363;BME280;11853;48.080;11.960;2023-01-29T06:40:38;95658.19;;;1.31;100.00
23363;BME280;11853;48.080;11.960;2023-01-29T06:43:04;95646.38;;;1.24;100.00
23363;BME280;11853;48.080;11.960;2023-01-29T06:45:30;95652.22;;;1.29;100.00
23363;BME280;11853;48.080;11.960;2023-01-29T06:47:55;95662.34;;;1.35;100.00
23363;BME280;11853;48.080;11.960;2023-01-29T06:50:23;95666.03;;;1.48;100.00
23363;BME280;11853;48.080;11.960;2023-01-29T06:52:49;95667.94;;;1.62;100.00
23363;BME280;11853;48.080;11.960;2023-01-29T06:55:15;95664.72;;;1.57;100.00
23363;BME280;11853;48.080;11.960;2023-01-29T06:57:41;95667.88;;;1.46;100.00
23363;BME280;11853;48.080;11.960;2023-01-29T07:00:08;95662.88;;;1.42;100.00
23363;BME280;11853;48.080;11.960;2023-01-29T07:02:34;95657.44;;;1.46;100.00
23363;BME280;11853;48.080;11.960;2023-01-29T07:05:00;95651.91;;;1.52;100.00
23363;BME280;11853;48.080;11.960;2023-01-29T07:07:26;95649.47;;;1.65;100.00
23363;BME280;11853;48.080;11.960;2023-01-29T07:09:52;95643.56;;;1.62;100.00
23363;BME280;11853;48.080;11.960;2023-01-29T07:12:17;95648.34;;;1.53;100.00
23363;BME280;11853;48.080;11.960;2023-01-29T07:14:43;95649.13;;;1.38;100.00
23363;BME280;11853;48.080;11.960;2023-01-29T07:17:08;95654.81;;;1.46;100.00
23363;BME280;11853;48.080;11.960;2023-01-29T07:19:34;95654.66;;;1.49;100.00
23363;BME280;11853;48.080;11.960;2023-01-29T07:22:00;95652.94;;;1.48;100.00
23363;BME280;11853;48.080;11.960;2023-01-29T07:24:27;95647.25;;;1.40;100.00
23363;BME280;11853;48.080;11.960;2023-01-29T07:26:53;95635.28;;;1.36;100.00
23363;BME280;11853;48.080;11.960;2023-01-29T07:29:18;95645.59;;;1.39;100.00
23363;BME280;11853;48.080;11.960;2023-01-29T07:31:45;95642.91;;;1.41;100.00
23363;BME280;11853;48.080;11.960;2023-01-29T07:34:11;95631.31;;;1.29;100.00
23363;BME280;11853;48.080;11.960;2023-01-29T07:36:37;95629.53;;;1.29;100.00
23363;BME280;11853;48.080;11.960;2023-01-29T07:39:02;95639.00;;;1.32;100.00
23363;BME280;11853;48.080;11.960;2023-01-29T07:41:28;95642.75;;;1.26;100.00
23363;BME280;11853;48.080;11.960;2023-01-29T07:43:55;95640.66;;;1.33;100.00
23363;BME280;11853;48.080;11.960;2023-01-29T07:46:20;95629.75;;;1.42;100.00
23363;BME280;11853;48.080;11.960;2023-01-29T07:48:46;95633.75;;;1.49;100.00
23363;BME280;11853;48.080;11.960;2023-01-29T07:51:13;95629.38;;;1.32;100.00
23363;BME280;11853;48.080;11.960;2023-01-29T07:53:38;95619.09;;;1.29;100.00
23363;BME280;11853;48.080;11.960;2023-01-29T07:56:04;95619.66;;;1.17;100.00
23363;BME280;11853;48.080;11.960;2023-01-29T07:58:30;95628.28;;;1.37;100.00
23363;BME280;11853;48.080;11.960;2023-01-29T08:00:56;95630.69;;;1.24;100.00
23363;BME280;11853;48.080;11.960;2023-01-29T08:03:22;95627.97;;;1.25;100.00
23363;BME280;11853;48.080;11.960;2023-01-29T08:05:48;95630.69;;;1.06;100.00
23363;BME280;11853;48.080;11.960;2023-01-29T08:08:14;95623.44;;;1.11;100.00
23363;BME280;11853;48.080;11.960;2023-01-29T08:10:41;95625.16;;;1.30;100.00
23363;BME280;11853;48.080;11.960;2023-01-29T08:13:07;95618.69;;;1.20;100.00
23363;BME280;11853;48.080;11.960;2023-01-29T08:15:34;95622.91;;;1.22;100.00
23363;BME280;11853;48.080;11.960;2023-01-29T08:18:03;95624.84;;;1.36;100.00
23363;BME280;11853;48.080;11.960;2023-01-29T08:20:29;95616.94;;;1.38;100.00
23363;BME280;11853;48.080;11.960;2023-01-29T08:23:03;95618.81;;;1.51;100.00
23363;BME280;11853;48.080;11.960;2023-01-29T08:25:29;95622.16;;;1.38;100.00
23363;BME280;11853;48.080;11.960;2023-01-29T08:27:59;95628.59;;;1.48;100.00
23363;BME280;11853;48.080;11.960;2023-01-29T08:30:28;95633.19;;;1.43;100.00
23363;BME280;11853;48.080;11.960;2023-01-29T08:32:54;95636.66;;;1.26;100.00
23363;BME280;11853;48.080;11.960;2023-01-29T08:35:20;95634.03;;;1.26;100.00
23363;BME280;11853;48.080;11.960;2023-01-29T08:37:57;95635.13;;;1.39;100.00
23363;BME280;11853;48.080;11.960;2023-01-29T08:40:25;95639.88;;;1.48;100.00
23363;BME280;11853;48.080;11.960;2023-01-29T08:42:51;95638.84;;;1.35;100.00
23363;BME280;11853;48.080;11.960;2023-01-29T08:45:17;95647.41;;;1.37;100.00
23363;BME280;11853;48.080;11.960;2023-01-29T08:47:47;95648.66;;;1.47;100.00
23363;BME280;11853;48.080;11.960;2023-01-29T08:50:15;95658.19;;;1.48;100.00
23363;BME280;11853;48.080;11.960;2023-01-29T08:52:41;95663.22;;;1.69;100.00
23363;BME280;11853;48.080;11.960;2023-01-29T08:55:07;95665.31;;;1.79;98.64
23363;BME280;11853;48.080;11.960;2023-01-29T08:57:33;95675.59;;;1.83;99.88
23363;BME280;11853;48.080;11.960;2023-01-29T08:59:59;95678.84;;;1.88;97.12
23363;BME280;11853;48.080;11.960;2023-01-29T09:02:25;95673.94;;;1.82;97.54
23363;BME280;11853;48.080;11.960;2023-01-29T09:04:50;95671.94;;;1.87;98.37
23363;BME280;11853;48.080;11.960;2023-01-29T09:07:16;95679.91;;;2.01;98.01
23363;BME280;11853;48.080;11.960;2023-01-29T09:09:42;95678.41;;;2.13;97.17
23363;BME280;11853;48.080;11.960;2023-01-29T09:12:10;95673.94;;;2.15;95.82
23363;BME280;11853;48.080;11.960;2023-01-29T09:14:35;95680.34;;;2.09;95.09
23363;BME280;11853;48.080;11.960;2023-01-29T09:17:01;95679.31;;;2.12;96.11
23363;BME280;11853;48.080;11.960;2023-01-29T09:19:27;95685.75;;;2.22;94.33
23363;BME280;11853;48.080;11.960;2023-01-29T09:21:52;95684.94;;;2.37;94.07
23363;BME280;11853;48.080;11.960;2023-01-29T09:24:18;95688.75;;;2.47;93.27
23363;BME280;11853;48.080;11.960;2023-01-29T09:26:44;95682.53;;;2.50;92.27
23363;BME280;11853;48.080;11.960;2023-01-29T09:29:09;95690.09;;;2.55;91.06
23363;BME280;11853;48.080;11.960;2023-01-29T09:31:35;95692.50;;;2.59;91.23
23363;BME280;11853;48.080;11.960;2023-01-29T09:34:01;95696.88;;;2.59;90.81
23363;BME280;11853;48.080;11.960;2023-01-29T09:36:27;95702.63;;;2.65;91.13
23363;BME280;11853;48.080;11.960;2023-01-29T09:38:53;95690.53;;;2.63;90.40
23363;BME280;11853;48.080;11.960;2023-01-29T09:41:59;95699.94;;;2.67;89.51
23363;BME280;11853;48.080;11.960;2023-01-29T09:44:45;95703.22;;;2.70;90.41
23363;BME280;11853;48.080;11.960;2023-01-29T09:47:15;95715.13;;;2.60;89.65
23363;BME280;11853;48.080;11.960;2023-01-29T09:49:46;95707.03;;;2.65;90.11
23363;BME280;11853;48.080;11.960;2023-01-29T09:55:09;95717.50;;;2.65;89.51
23363;BME280;11853;48.080;11.960;2023-01-29T09:57:47;95722.56;;;2.68;89.55
23363;BME280;11853;48.080;11.960;2023-01-29T10:00:23;95723.41;;;2.53;90.21
23363;BME280;11853;48.080;11.960;2023-01-29T10:05:48;95715.22;;;2.59;90.92
23363;BME280;11853;48.080;11.960;2023-01-29T10:08:20;95721.53;;;2.55;90.31
23363;BME280;11853;48.080;11.960;2023-01-29T10:10:54;95711.31;;;2.50;90.72
23363;BME280;11853;48.080;11.960;2023-01-29T10:13:43;95716.06;;;2.43;88.99
23363;BME280;11853;48.080;11.960;2023-01-29T10:21:51;95706.50;;;2.42;90.96
23363;BME280;11853;48.080;11.960;2023-01-29T10:24:33;95700.91;;;2.48;90.97
23363;BME280;11853;48.080;11.960;2023-01-29T10:27:02;95701.00;;;2.47;90.66
23363;BME280;11853;48.080;11.960;2023-01-29T10:29:34;95701.25;;;2.42;91.35
23363;BME280;11853;48.080;11.960;2023-01-29T10:32:01;95700.00;;;2.50;91.10
23363;BME280;11853;48.080;11.960;2023-01-29T10:34:42;95699.25;;;2.47;92.22
23363;BME280;11853;48.080;11.960;2023-01-29T10:37:23;95698.06;;;2.53;92.21
23363;BME280;11853;48.080;11.960;2023-01-29T10:39:50;95688.94;;;2.60;91.15
23363;BME280;11853;48.080;11.960;2023-01-29T10:42:27;95690.72;;;2.60;88.29
23363;BME280;11853;48.080;11.960;2023-01-29T10:48:00;95693.06;;;2.48;90.51
23363;BME280;11853;48.080;11.960;2023-01-29T10:58:55;95678.91;;;2.53;92.04
23363;BME280;11853;48.080;11.960;2023-01-29T11:01:23;95683.78;;;2.59;92.12
23363;BME280;11853;48.080;11.960;2023-01-29T11:03:55;95679.06;;;2.65;92.01
23363;BME280;11853;48.080;11.960;2023-01-29T11:06:27;95678.81;;;2.70;92.05
23363;BME280;11853;48.080;11.960;2023-01-29T11:09:27;95671.91;;;2.69;91.74
23363;BME280;11853;48.080;11.960;2023-01-29T11:14:52;95666.22;;;2.61;91.96
23363;BME280;11853;48.080;11.960;2023-01-29T11:17:22;95670.25;;;2.51;92.52
23363;BME280;11853;48.080;11.960;2023-01-29T11:19:49;95670.69;;;2.59;92.40
23363;BME280;11853;48.080;11.960;2023-01-29T11:22:35;95670.28;;;2.66;92.78
23363;BME280;11853;48.080;11.960;2023-01-29T11:25:18;95675.34;;;2.69;93.05
23363;BME280;11853;48.080;11.960;2023-01-29T11:27:49;95666.66;;;2.69;94.02
23363;BME280;11853;48.080;11.960;2023-01-29T11:30:21;95668.69;;;2.64;92.93
23363;BME280;11853;48.080;11.960;2023-01-29T11:32:51;95666.06;;;2.64;92.59
23363;BME280;11853;48.080;11.960;2023-01-29T11:35:24;95665.53;;;2.73;92.29
23363;BME280;11853;48.080;11.960;2023-01-29T11:37:50;95663.69;;;2.75;92.85
23363;BME280;11853;48.080;11.960;2023-01-29T11:42:48;95654.66;;;2.65;93.34
23363;BME280;11853;48.080;11.960;2023-01-29T11:45:28;95657.19;;;2.66;92.74
23363;BME280;11853;48.080;11.960;2023-01-29T11:47:57;95647.38;;;2.70;91.83
23363;BME280;11853;48.080;11.960;2023-01-29T11:50:25;95639.25;;;2.75;92.06
23363;BME280;11853;48.080;11.960;2023-01-29T11:52:51;95638.94;;;2.65;91.23
23363;BME280;11853;48.080;11.960;2023-01-29T11:55:33;95634.47;;;2.67;91.56
23363;BME280;11853;48.080;11.960;2023-01-29T11:58:15;95621.88;;;2.58;91.48
23363;BME280;11853;48.080;11.960;2023-01-29T12:00:46;95611.31;;;2.75;87.35
23363;BME280;11853;48.080;11.960;2023-01-29T12:05:58;95587.97;;;2.55;88.56
23363;BME280;11853;48.080;11.960;2023-01-29T12:08:24;95586.72;;;2.46;90.78
23363;BME280;11853;48.080;11.960;2023-01-29T12:10:50;95580.28;;;2.52;89.88
23363;BME280;11853;48.080;11.960;2023-01-29T12:13:31;95568.91;;;2.05;92.56
23363;BME280;11853;48.080;11.960;2023-01-29T12:16:14;95561.56;;;2.28;92.37
23363;BME280;11853;48.080;11.960;2023-01-29T12:19:09;95550.44;;;2.24;93.09
23363;BME280;11853;48.080;11.960;2023-01-29T12:21:46;95532.25;;;2.53;90.44
23363;BME280;11853;48.080;11.960;2023-01-29T12:24:34;95538.03;;;2.74;88.54
23363;BME280;11853;48.080;11.960;2023-01-29T12:27:14;95542.13;;;2.47;90.17
23363;BME280;11853;48.080;11.960;2023-01-29T12:35:32;95554.19;;;2.66;88.73
23363;BME280;11853;48.080;11.960;2023-01-29T12:38:03;95554.09;;;2.67;87.85
23363;BME280;11853;48.080;11.960;2023-01-29T12:41:19;95554.59;;;2.74;86.62
23363;BME280;11853;48.080;11.960;2023-01-29T12:44:04;95558.09;;;2.59;87.45
23363;BME280;11853;48.080;11.960;2023-01-29T12:46:40;95564.41;;;2.55;87.16
23363;BME280;11853;48.080;11.960;2023-01-29T12:49:18;95563.75;;;2.67;86.45
23363;BME280;11853;48.080;11.960;2023-01-29T12:54:32;95546.00;;;2.56;87.04
23363;BME280;11853;48.080;11.960;2023-01-29T12:57:02;95548.38;;;2.61;87.80
23363;BME280;11853;48.080;11.960;2023-01-29T12:59:43;95539.41;;;2.65;88.07
23363;BME280;11853;48.080;11.960;2023-01-29T13:02:34;95538.63;;;2.63;87.00
23363;BME280;11853;48.080;11.960;2023-01-29T13:07:56;95523.72;;;2.79;85.94
23363;BME280;11853;48.080;11.960;2023-01-29T13:10:36;95526.31;;;2.65;84.94
23363;BME280;11853;48.080;11.960;2023-01-29T13:13:27;95526.22;;;2.66;86.88
23363;BME280;11853;48.080;11.960;2023-01-29T13:15:56;95521.06;;;2.65;84.68
23363;BME280;11853;48.080;11.960;2023-01-29T13:18:36;95515.66;;;2.68;85.95
23363;BME280;11853;48.080;11.960;2023-01-29T13:21:05;95509.50;;;2.69;87.54
23363;BME280;11853;48.080;11.960;2023-01-29T13:23:39;95500.47;;;2.59;86.11
23363;BME280;11853;48.080;11.960;2023-01-29T13:26:08;95492.50;;;2.60;87.65
23363;BME280;11853;48.080;11.960;2023-01-29T13:28:33;95490.44;;;2.51;88.35
23363;BME280;11853;48.080;11.960;2023-01-29T13:31:37;95489.09;;;2.44;86.19
23363;BME280;11853;48.080;11.960;2023-01-29T13:34:21;95479.31;;;2.32;87.76
23363;BME280;11853;48.080;11.960;2023-01-29T13:36:51;95486.75;;;2.39;87.35
23363;BME280;11853;48.080;11.960;2023-01-29T13:39:26;95478.41;;;2.33;88.77
23363;BME280;11853;48.080;11.960;2023-01-29T13:41:54;95474.78;;;2.35;89.95
23363;BME280;11853;48.080;11.960;2023-01-29T13:47:03;95479.81;;;2.38;91.67
23363;BME280;11853;48.080;11.960;2023-01-29T13:49:52;95477.94;;;2.40;91.70
23363;BME280;11853;48.080;11.960;2023-01-29T13:52:44;95482.69;;;2.50;92.93
23363;BME280;11853;48.080;11.960;2023-01-29T14:05:37;95464.66;;;2.59;91.15
23363;BME280;11853;48.080;11.960;2023-01-29T14:10:36;95462.28;;;2.55;91.81
23363;BME280;11853;48.080;11.960;2023-01-29T14:18:28;95454.59;;;2.52;93.01
23363;BME280;11853;48.080;11.960;2023-01-29T14:21:01;95465.09;;;2.52;91.76
23363;BME280;11853;48.080;11.960;2023-01-29T14:29:14;95461.94;;;2.61;92.82
23363;BME280;11853;48.080;11.960;2023-01-29T14:31:57;95478.41;;;2.63;92.63
23363;BME280;11853;48.080;11.960;2023-01-29T14:34:34;95479.75;;;2.70;91.36
23363;BME280;11853;48.080;11.960;2023-01-29T14:37:03;95475.53;;;2.67;92.01
23363;BME280;11853;48.080;11.960;2023-01-29T14:39:48;95471.19;;;2.52;91.49
23363;BME280;11853;48.080;11.960;2023-01-29T14:47:53;95481.50;;;2.39;92.16
23363;BME280;11853;48.080;11.960;2023-01-29T14:53:17;95481.19;;;2.30;92.73
23363;BME280;11853;48.080;11.960;2023-01-29T14:56:09;95471.47;;;2.32;92.22
23363;BME280;11853;48.080;11.960;2023-01-29T15:01:36;95468.53;;;2.38;93.42
23363;BME280;11853;48.080;11.960;2023-01-29T15:04:06;95471.31;;;2.35;93.53
23363;BME280;11853;48.080;11.960;2023-01-29T15:06:49;95465.97;;;2.36;91.61
23363;BME280;11853;48.080;11.960;2023-01-29T15:09:41;95461.97;;;2.45;91.88
23363;BME280;11853;48.080;11.960;2023-01-29T15:12:13;95463.34;;;2.36;91.46
23363;BME280;11853;48.080;11.960;2023-01-29T15:14:51;95464.47;;;2.32;91.47
23363;BME280;11853;48.080;11.960;2023-01-29T15:17:29;95464.13;;;2.38;92.46
23363;BME280;11853;48.080;11.960;2023-01-29T15:19:57;95453.47;;;2.41;94.69
23363;BME280;11853;48.080;11.960;2023-01-29T15:22:23;95460.19;;;2.45;94.72
23363;BME280;11853;48.080;11.960;2023-01-29T15:25:05;95465.44;;;2.45;93.42
23363;BME280;11853;48.080;11.960;2023-01-29T15:27:32;95474.41;;;2.41;93.43
23363;BME280;11853;48.080;11.960;2023-01-29T15:30:03;95470.25;;;2.37;93.90